sensor_id;sensor_type;location;lat;lon;timestamp;P1;durP1;ratioP1;P2;durP2;ratioP2
54191;SDS011;40101;53.002;6.488;2023-02-10T16:11:59;22.60;;;8.55;;
54191;SDS011;40101;53.002;6.488;2023-02-10T16:14:25;18.67;;;6.93;;
54191;SDS011;40101;53.002;6.488;2023-02-10T16:16:52;19.83;;;7.90;;
54191;SDS011;40101;53.002;6.488;2023-02-10T16:19:20;19.10;;;7.10;;
54191;SDS011;40101;53.002;6.488;2023-02-10T16:21:48;21.48;;;8.73;;
54191;SDS011;40101;53.002;6.488;2023-02-10T16:24:16;18.80;;;8.10;;
54191;SDS011;40101;53.002;6.488;2023-02-10T16:26:43;17.20;;;8.43;;
54191;SDS011;40101;53.002;6.488;2023-02-10T16:29:20;15.98;;;7.63;;
54191;SDS011;40101;53.002;6.488;2023-02-10T16:31:47;17.52;;;7.80;;
54191;SDS011;40101;53.002;6.488;2023-02-10T16:34:14;12.48;;;7.75;;
54191;SDS011;40101;53.002;6.488;2023-02-10T16:36:40;18.50;;;8.20;;
54191;SDS011;40101;53.002;6.488;2023-02-10T16:39:10;17.77;;;8.48;;
54191;SDS011;40101;53.002;6.488;2023-02-10T16:41:40;26.90;;;8.93;;
54191;SDS011;40101;53.002;6.488;2023-02-10T16:44:06;14.55;;;8.27;;
54191;SDS011;40101;53.002;6.488;2023-02-10T16:46:32;24.88;;;7.93;;
54191;SDS011;40101;53.002;6.488;2023-02-10T16:48:58;21.25;;;8.20;;
54191;SDS011;40101;53.002;6.488;2023-02-10T16:51:24;18.77;;;8.80;;
54191;SDS011;40101;53.002;6.488;2023-02-10T16:53:49;21.55;;;9.77;;
54191;SDS011;40101;53.002;6.488;2023-02-10T16:56:19;13.43;;;8.32;;
54191;SDS011;40101;53.002;6.488;2023-02-10T16:58:46;23.42;;;8.23;;
54191;SDS011;40101;53.002;6.488;2023-02-10T17:01:11;21.25;;;8.55;;
54191;SDS011;40101;53.002;6.488;2023-02-10T17:03:38;21.77;;;9.45;;
54191;SDS011;40101;53.002;6.488;2023-02-10T17:06:04;21.77;;;9.32;;
54191;SDS011;40101;53.002;6.488;2023-02-10T17:08:30;17.92;;;8.48;;
54191;SDS011;40101;53.002;6.488;2023-02-10T17:10:56;16.55;;;9.65;;
54191;SDS011;40101;53.002;6.488;2023-02-10T17:13:21;21.88;;;9.20;;
54191;SDS011;40101;53.002;6.488;2023-02-10T17:15:47;17.63;;;9.45;;
54191;SDS011;40101;53.002;6.488;2023-02-10T17:18:14;19.10;;;9.18;;
54191;SDS011;40101;53.002;6.488;2023-02-10T17:20:40;19.50;;;9.75;;
54191;SDS011;40101;53.002;6.488;2023-02-10T17:23:06;18.48;;;10.00;;
54191;SDS011;40101;53.002;6.488;2023-02-10T17:25:32;21.63;;;9.05;;
54191;SDS011;40101;53.002;6.488;2023-02-10T17:27:59;18.98;;;9.20;;
54191;SDS011;40101;53.002;6.488;2023-02-10T17:30:25;21.33;;;10.02;;
54191;SDS011;40101;53.002;6.488;2023-02-10T17:32:51;23.95;;;9.70;;
54191;SDS011;40101;53.002;6.488;2023-02-10T17:35:19;14.60;;;8.77;;
54191;SDS011;40101;53.002;6.488;2023-02-10T17:37:46;18.85;;;9.05;;
54191;SDS011;40101;53.002;6.488;2023-02-10T17:40:13;19.60;;;10.18;;
54191;SDS011;40101;53.002;6.488;2023-02-10T17:42:47;18.55;;;9.65;;
54191;SDS011;40101;53.002;6.488;2023-02-10T17:45:13;22.05;;;9.55;;
54191;SDS011;40101;53.002;6.488;2023-02-10T17:47:40;16.17;;;9.50;;
54191;SDS011;40101;53.002;6.488;2023-02-10T17:50:06;21.33;;;9.65;;
54191;SDS011;40101;53.002;6.488;2023-02-10T17:52:32;20.90;;;8.90;;
54191;SDS011;40101;53.002;6.488;2023-02-10T17:54:58;21.25;;;9.15;;
54191;SDS011;40101;53.002;6.488;2023-02-10T17:57:24;16.27;;;9.00;;
54191;SDS011;40101;53.002;6.488;2023-02-10T17:59:50;20.60;;;8.90;;
54191;SDS011;40101;53.002;6.488;2023-02-10T18:02:16;14.23;;;9.23;;
54191;SDS011;40101;53.002;6.488;2023-02-10T18:04:42;16.42;;;8.45;;
54191;SDS011;40101;53.002;6.488;2023-02-10T18:07:11;12.63;;;8.73;;
54191;SDS011;40101;53.002;6.488;2023-02-10T18:09:43;17.90;;;8.68;;
54191;SDS011;40101;53.002;6.488;2023-02-10T18:12:09;15.63;;;8.75;;
54191;SDS011;40101;53.002;6.488;2023-02-10T18:14:37;20.30;;;9.45;;
54191;SDS011;40101;53.002;6.488;2023-02-10T18:17:03;16.48;;;8.88;;
54191;SDS011;40101;53.002;6.488;2023-02-10T18:19:30;17.42;;;9.40;;
54191;SDS011;40101;53.002;6.488;2023-02-10T18:21:56;23.83;;;9.48;;
54191;SDS011;40101;53.002;6.488;2023-02-10T18:24:21;18.00;;;9.25;;
54191;SDS011;40101;53.002;6.488;2023-02-10T18:26:48;16.80;;;9.25;;
54191;SDS011;40101;53.002;6.488;2023-02-10T18:29:15;16.17;;;9.73;;
54191;SDS011;40101;53.002;6.488;2023-02-10T18:31:41;20.63;;;10.45;;
54191;SDS011;40101;53.002;6.488;2023-02-10T18:34:07;22.33;;;11.27;;
54191;SDS011;40101;53.002;6.488;2023-02-10T18:36:33;21.50;;;8.85;;
54191;SDS011;40101;53.002;6.488;2023-02-10T18:38:59;20.20;;;10.45;;
54191;SDS011;40101;53.002;6.488;2023-02-10T18:41:25;25.33;;;10.63;;
54191;SDS011;40101;53.002;6.488;2023-02-10T18:43:50;19.98;;;10.20;;
54191;SDS011;40101;53.002;6.488;2023-02-10T18:46:17;31.08;;;10.40;;
54191;SDS011;40101;53.002;6.488;2023-02-10T18:48:44;20.08;;;9.95;;
54191;SDS011;40101;53.002;6.488;2023-02-10T18:51:10;22.50;;;10.20;;
54191;SDS011;40101;53.002;6.488;2023-02-10T18:53:37;20.38;;;10.25;;
54191;SDS011;40101;53.002;6.488;2023-02-10T18:56:07;24.60;;;9.82;;
54191;SDS011;40101;53.002;6.488;2023-02-10T18:58:34;27.95;;;10.52;;
54191;SDS011;40101;53.002;6.488;2023-02-10T19:01:05;17.50;;;9.93;;
54191;SDS011;40101;53.002;6.488;2023-02-10T19:03:33;25.00;;;11.02;;
54191;SDS011;40101;53.002;6.488;2023-02-10T19:05:59;30.65;;;12.00;;
54191;SDS011;40101;53.002;6.488;2023-02-10T19:08:25;21.30;;;10.68;;
54191;SDS011;40101;53.002;6.488;2023-02-10T19:10:51;26.65;;;10.88;;
54191;SDS011;40101;53.002;6.488;2023-02-10T19:13:17;31.23;;;11.57;;
54191;SDS011;40101;53.002;6.488;2023-02-10T19:15:44;23.73;;;11.50;;
54191;SDS011;40101;53.002;6.488;2023-02-10T19:18:12;21.95;;;11.20;;
54191;SDS011;40101;53.002;6.488;2023-02-10T19:20:38;21.75;;;12.55;;
54191;SDS011;40101;53.002;6.488;2023-02-10T19:23:03;22.75;;;12.10;;
54191;SDS011;40101;53.002;6.488;2023-02-10T19:25:29;27.55;;;12.20;;
54191;SDS011;40101;53.002;6.488;2023-02-10T19:27:54;26.77;;;12.60;;
54191;SDS011;40101;53.002;6.488;2023-02-10T19:30:20;30.63;;;12.32;;
54191;SDS011;40101;53.002;6.488;2023-02-10T19:32:46;26.35;;;12.32;;
54191;SDS011;40101;53.002;6.488;2023-02-10T19:35:12;26.63;;;12.32;;
54191;SDS011;40101;53.002;6.488;2023-02-10T19:37:37;26.88;;;13.38;;
54191;SDS011;40101;53.002;6.488;2023-02-10T19:40:04;23.00;;;13.18;;
54191;SDS011;40101;53.002;6.488;2023-02-10T19:42:30;23.00;;;14.02;;
54191;SDS011;40101;53.002;6.488;2023-02-10T19:44:56;28.92;;;13.52;;
54191;SDS011;40101;53.002;6.488;2023-02-10T19:47:21;30.15;;;14.02;;
54191;SDS011;40101;53.002;6.488;2023-02-10T19:49:47;28.27;;;14.18;;
54191;SDS011;40101;53.002;6.488;2023-02-10T19:52:13;23.70;;;13.70;;
54191;SDS011;40101;53.002;6.488;2023-02-10T19:54:38;33.20;;;14.10;;
54191;SDS011;40101;53.002;6.488;2023-02-10T19:57:04;29.67;;;13.75;;
54191;SDS011;40101;53.002;6.488;2023-02-10T19:59:30;34.20;;;14.65;;
54191;SDS011;40101;53.002;6.488;2023-02-10T20:01:55;27.20;;;13.45;;
54191;SDS011;40101;53.002;6.488;2023-02-10T20:04:21;29.10;;;14.95;;
54191;SDS011;40101;53.002;6.488;2023-02-10T20:06:47;33.28;;;15.45;;
54191;SDS011;40101;53.002;6.488;2023-02-10T20:09:14;24.98;;;14.45;;
54191;SDS011;40101;53.002;6.488;2023-02-10T20:11:41;28.35;;;13.85;;
54191;SDS011;40101;53.002;6.488;2023-02-10T20:14:07;32.25;;;14.95;;
54191;SDS011;40101;53.002;6.488;2023-02-10T20:16:38;27.35;;;14.38;;
54191;SDS011;40101;53.002;6.488;2023-02-10T20:19:07;27.98;;;14.38;;
54191;SDS011;40101;53.002;6.488;2023-02-10T20:21:35;27.33;;;13.90;;
54191;SDS011;40101;53.002;6.488;2023-02-10T20:24:01;29.95;;;14.38;;
54191;SDS011;40101;53.002;6.488;2023-02-10T20:26:26;31.88;;;14.55;;
54191;SDS011;40101;53.002;6.488;2023-02-10T20:28:52;27.45;;;14.48;;
54191;SDS011;40101;53.002;6.488;2023-02-10T20:31:18;31.58;;;14.27;;
54191;SDS011;40101;53.002;6.488;2023-02-10T20:33:44;27.50;;;14.55;;
54191;SDS011;40101;53.002;6.488;2023-02-10T20:36:12;29.02;;;13.93;;
54191;SDS011;40101;53.002;6.488;2023-02-10T20:38:39;33.72;;;14.82;;
54191;SDS011;40101;53.002;6.488;2023-02-10T20:41:06;25.10;;;12.93;;
54191;SDS011;40101;53.002;6.488;2023-02-10T20:43:32;34.40;;;14.48;;
54191;SDS011;40101;53.002;6.488;2023-02-10T20:45:59;36.25;;;13.27;;
54191;SDS011;40101;53.002;6.488;2023-02-10T20:48:25;26.23;;;12.52;;
54191;SDS011;40101;53.002;6.488;2023-02-10T20:50:50;24.73;;;12.88;;
54191;SDS011;40101;53.002;6.488;2023-02-10T20:53:16;31.48;;;13.82;;
54191;SDS011;40101;53.002;6.488;2023-02-10T20:55:44;30.30;;;12.35;;
54191;SDS011;40101;53.002;6.488;2023-02-10T20:58:10;28.10;;;11.77;;
54191;SDS011;40101;53.002;6.488;2023-02-10T21:00:36;30.20;;;11.55;;
54191;SDS011;40101;53.002;6.488;2023-02-10T21:03:02;22.63;;;12.82;;
54191;SDS011;40101;53.002;6.488;2023-02-10T21:05:27;34.83;;;14.60;;
54191;SDS011;40101;53.002;6.488;2023-02-10T21:07:53;24.23;;;14.43;;
54191;SDS011;40101;53.002;6.488;2023-02-10T21:10:19;32.70;;;12.52;;
54191;SDS011;40101;53.002;6.488;2023-02-10T21:12:45;32.65;;;12.93;;
54191;SDS011;40101;53.002;6.488;2023-02-10T21:15:11;28.33;;;11.45;;
54191;SDS011;40101;53.002;6.488;2023-02-10T21:17:37;30.08;;;11.77;;
54191;SDS011;40101;53.002;6.488;2023-02-10T21:20:03;30.25;;;12.45;;
54191;SDS011;40101;53.002;6.488;2023-02-10T21:22:30;28.08;;;10.40;;
54191;SDS011;40101;53.002;6.488;2023-02-10T21:24:57;26.67;;;11.70;;
54191;SDS011;40101;53.002;6.488;2023-02-10T21:27:23;22.77;;;10.85;;
54191;SDS011;40101;53.002;6.488;2023-02-10T21:29:52;31.85;;;11.60;;
54191;SDS011;40101;53.002;6.488;2023-02-10T21:32:18;25.63;;;10.23;;
54191;SDS011;40101;53.002;6.488;2023-02-10T21:34:44;31.67;;;12.25;;
54191;SDS011;40101;53.002;6.488;2023-02-10T21:37:10;20.65;;;9.85;;
54191;SDS011;40101;53.002;6.488;2023-02-10T21:39:36;23.90;;;10.13;;
54191;SDS011;40101;53.002;6.488;2023-02-10T21:42:02;25.60;;;10.73;;
54191;SDS011;40101;53.002;6.488;2023-02-10T21:44:29;22.67;;;10.90;;
54191;SDS011;40101;53.002;6.488;2023-02-10T21:46:56;28.67;;;11.63;;
54191;SDS011;40101;53.002;6.488;2023-02-10T21:49:24;24.75;;;10.23;;
54191;SDS011;40101;53.002;6.488;2023-02-10T21:51:52;24.15;;;11.20;;
54191;SDS011;40101;53.002;6.488;2023-02-10T21:54:18;31.38;;;12.05;;
54191;SDS011;40101;53.002;6.488;2023-02-10T21:56:46;27.15;;;10.63;;
54191;SDS011;40101;53.002;6.488;2023-02-10T21:59:11;25.63;;;10.57;;
54191;SDS011;40101;53.002;6.488;2023-02-10T22:01:38;24.27;;;10.57;;
54191;SDS011;40101;53.002;6.488;2023-02-10T22:04:04;25.55;;;10.85;;
54191;SDS011;40101;53.002;6.488;2023-02-10T22:06:31;23.90;;;10.63;;
54191;SDS011;40101;53.002;6.488;2023-02-10T22:08:58;31.73;;;10.88;;
54191;SDS011;40101;53.002;6.488;2023-02-10T22:11:24;25.33;;;9.77;;
54191;SDS011;40101;53.002;6.488;2023-02-10T22:13:51;24.75;;;10.30;;
54191;SDS011;40101;53.002;6.488;2023-02-10T22:16:17;25.13;;;9.73;;
54191;SDS011;40101;53.002;6.488;2023-02-10T22:18:44;28.95;;;10.15;;
54191;SDS011;40101;53.002;6.488;2023-02-10T22:21:12;25.50;;;10.20;;
54191;SDS011;40101;53.002;6.488;2023-02-10T22:23:39;28.00;;;9.98;;
54191;SDS011;40101;53.002;6.488;2023-02-10T22:26:06;21.85;;;9.70;;
54191;SDS011;40101;53.002;6.488;2023-02-10T22:28:32;31.27;;;10.02;;
54191;SDS011;40101;53.002;6.488;2023-02-10T22:30:59;33.83;;;10.07;;
54191;SDS011;40101;53.002;6.488;2023-02-10T22:33:24;26.42;;;8.95;;
54191;SDS011;40101;53.002;6.488;2023-02-10T22:35:50;27.48;;;8.88;;
54191;SDS011;40101;53.002;6.488;2023-02-10T22:38:16;32.17;;;9.70;;
54191;SDS011;40101;53.002;6.488;2023-02-10T22:40:42;37.55;;;11.82;;
54191;SDS011;40101;53.002;6.488;2023-02-10T22:43:09;30.52;;;9.13;;
54191;SDS011;40101;53.002;6.488;2023-02-10T22:45:35;19.25;;;8.50;;
54191;SDS011;40101;53.002;6.488;2023-02-10T22:48:02;28.52;;;9.00;;
54191;SDS011;40101;53.002;6.488;2023-02-10T22:50:29;27.27;;;9.25;;
54191;SDS011;40101;53.002;6.488;2023-02-10T22:52:54;22.10;;;9.40;;
54191;SDS011;40101;53.002;6.488;2023-02-10T22:55:21;24.77;;;9.20;;
54191;SDS011;40101;53.002;6.488;2023-02-10T22:57:48;18.92;;;8.32;;
54191;SDS011;40101;53.002;6.488;2023-02-10T23:00:20;27.23;;;8.82;;
54191;SDS011;40101;53.002;6.488;2023-02-10T23:05:16;33.83;;;8.88;;
54191;SDS011;40101;53.002;6.488;2023-02-10T23:07:42;32.90;;;8.48;;
54191;SDS011;40101;53.002;6.488;2023-02-10T23:10:08;29.95;;;8.05;;
54191;SDS011;40101;53.002;6.488;2023-02-10T23:12:34;27.95;;;8.02;;
54191;SDS011;40101;53.002;6.488;2023-02-10T23:15:01;26.38;;;6.90;;
54191;SDS011;40101;53.002;6.488;2023-02-10T23:17:27;20.20;;;7.57;;
54191;SDS011;40101;53.002;6.488;2023-02-10T23:19:53;24.60;;;7.55;;
54191;SDS011;40101;53.002;6.488;2023-02-10T23:22:19;20.08;;;6.22;;
54191;SDS011;40101;53.002;6.488;2023-02-10T23:24:44;26.98;;;8.23;;
54191;SDS011;40101;53.002;6.488;2023-02-10T23:27:11;20.88;;;6.45;;
54191;SDS011;40101;53.002;6.488;2023-02-10T23:29:37;21.67;;;6.53;;
54191;SDS011;40101;53.002;6.488;2023-02-10T23:32:03;30.65;;;8.70;;
54191;SDS011;40101;53.002;6.488;2023-02-10T23:34:29;22.42;;;6.72;;
54191;SDS011;40101;53.002;6.488;2023-02-10T23:36:55;34.35;;;7.75;;
54191;SDS011;40101;53.002;6.488;2023-02-10T23:39:20;22.63;;;6.63;;
54191;SDS011;40101;53.002;6.488;2023-02-10T23:41:46;17.83;;;6.20;;
54191;SDS011;40101;53.002;6.488;2023-02-10T23:44:11;19.67;;;6.95;;
54191;SDS011;40101;53.002;6.488;2023-02-10T23:46:39;22.38;;;6.70;;
54191;SDS011;40101;53.002;6.488;2023-02-10T23:49:05;18.58;;;6.90;;
54191;SDS011;40101;53.002;6.488;2023-02-10T23:51:30;25.27;;;6.40;;
54191;SDS011;40101;53.002;6.488;2023-02-10T23:53:56;31.85;;;7.90;;
54191;SDS011;40101;53.002;6.488;2023-02-10T23:56:23;29.85;;;6.25;;
54191;SDS011;40101;53.002;6.488;2023-02-10T23:58:49;25.27;;;6.78;;
